Time;durP1;ratioP1;P1;durP2;ratioP2;P2;SDS_P1;SDS_P2;PMS_P1;PMS_P2;Temp;Humidity;BMP_temperature;BMP_pressure;BME280_temperature;BME280_humidity;BME280_pressure;Samples;Min_cycle;Max_cycle;Signal;HPM_P1;HPM_P2
2021/12/13 00:02:19;;;;;;;81.43;31.07;;;8.50;99.90;;;;;;5096753;28;20682;-65
2021/12/13 00:05:07;;;;;;;95.30;33.23;;;8.50;99.90;;;;;;5096070;28;20545;-65
2021/12/13 00:07:38;;;;;;;85.20;32.20;;;8.50;99.90;;;;;;5093687;28;20192;-65
2021/12/13 00:10:18;;;;;;;88.57;33.27;;;8.50;99.90;;;;;;5097409;28;20174;-64
2021/12/13 00:16:07;;;;;;;96.53;33.97;;;8.60;99.90;;;;;;5096435;28;20643;-65
2021/12/13 00:18:43;;;;;;;92.33;34.13;;;8.60;99.90;;;;;;5096106;28;20208;-65
2021/12/13 00:21:14;;;;;;;98.03;34.17;;;8.60;99.90;;;;;;5094895;28;20589;-65
2021/12/13 00:23:54;;;;;;;102.97;36.73;;;8.60;99.90;;;;;;5095886;28;20185;-65
2021/12/13 00:26:40;;;;;;;100.87;35.27;;;8.60;99.90;;;;;;5095959;28;20181;-65
2021/12/13 00:29:11;;;;;;;97.10;36.63;;;8.60;99.90;;;;;;5095960;28;20176;-65
2021/12/13 00:32:14;;;;;;;87.17;33.63;;;8.60;99.90;;;;;;5095893;28;20585;-65
2021/12/13 00:34:45;;;;;;;114.57;37.33;;;8.60;99.90;;;;;;5095654;28;20193;-65
2021/12/13 00:37:32;;;;;;;88.53;35.23;;;8.60;99.90;;;;;;5095669;28;20153;-65
2021/12/13 00:40:12;;;;;;;100.67;36.03;;;8.60;99.90;;;;;;5095726;28;20161;-65
2021/12/13 00:42:43;;;;;;;107.93;36.47;;;8.60;99.90;;;;;;5095797;28;20169;-65
2021/12/13 00:45:12;;;;;;;105.57;37.23;;;8.60;99.90;;;;;;5094286;28;20169;-65
2021/12/13 00:47:42;;;;;;;110.53;37.77;;;8.60;99.90;;;;;;5095190;28;20181;-65
2021/12/13 00:50:22;;;;;;;112.70;38.10;;;8.60;99.90;;;;;;5095512;28;20204;-65
2021/12/13 00:52:50;;;;;;;100.73;36.00;;;8.60;99.90;;;;;;5093502;28;20212;-65
2021/12/13 00:55:20;;;;;;;109.07;38.60;;;8.60;99.90;;;;;;5095288;28;20220;-65
2021/12/13 00:58:09;;;;;;;86.00;32.57;;;8.60;99.90;;;;;;5095132;28;20161;-65
2021/12/13 01:01:04;;;;;;;107.13;36.40;;;8.60;99.90;;;;;;5095758;28;20161;-65
2021/12/13 01:03:42;;;;;;;97.37;35.37;;;8.60;99.90;;;;;;5094724;28;20193;-65
2021/12/13 01:06:37;;;;;;;103.20;35.47;;;8.60;99.90;;;;;;5095538;28;20224;-65
2021/12/13 01:09:40;;;;;;;95.73;35.77;;;8.60;99.90;;;;;;5093498;28;20177;-65
2021/12/13 01:12:12;;;;;;;114.10;36.83;;;8.60;99.90;;;;;;5095248;28;20591;-65
2021/12/13 01:14:54;;;;;;;103.50;37.23;;;8.60;99.90;;;;;;5094845;28;20231;-65
2021/12/13 01:17:38;;;;;;;103.30;37.20;;;8.60;99.90;;;;;;5094896;28;20158;-65
2021/12/13 01:20:18;;;;;;;100.30;35.87;;;8.60;99.90;;;;;;5094863;28;20188;-65
2021/12/13 01:22:55;;;;;;;84.13;33.43;;;8.60;99.90;;;;;;5094504;28;20153;-65
2021/12/13 01:28:43;;;;;;;91.50;32.57;;;8.60;99.90;;;;;;5083101;28;20193;-65
2021/12/13 01:31:34;;;;;;;94.03;34.90;;;8.60;99.90;;;;;;5093188;28;20185;-65
2021/12/13 01:34:02;;;;;;;78.07;32.67;;;8.60;99.90;;;;;;5094186;28;20220;-66
2021/12/13 01:36:41;;;;;;;81.03;31.80;;;8.60;99.90;;;;;;5093579;28;20176;-65
2021/12/13 01:39:13;;;;;;;81.73;32.00;;;8.60;99.90;;;;;;5094937;28;20161;-64
2021/12/13 01:41:46;;;;;;;81.57;32.00;;;8.60;99.90;;;;;;5093018;28;20166;-66
2021/12/13 01:44:14;;;;;;;93.60;33.40;;;8.60;99.90;;;;;;5094738;28;20193;-68
2021/12/13 01:46:45;;;;;;;81.80;31.27;;;8.60;99.90;;;;;;5092797;28;20181;-67
2021/12/13 01:49:13;;;;;;;77.70;31.50;;;8.60;99.90;;;;;;5092749;28;20169;-67
2021/12/13 01:51:39;;;;;;;73.40;30.57;;;8.60;99.90;;;;;;5092699;28;20246;-68
2021/12/13 01:54:31;;;;;;;77.93;29.10;;;8.60;99.90;;;;;;5094040;28;20281;-67
2021/12/13 01:57:22;;;;;;;74.33;29.20;;;8.60;99.90;;;;;;5092621;28;20189;-67
2021/12/13 02:00:08;;;;;;;72.17;29.53;;;8.60;99.90;;;;;;5094233;28;20153;-67
2021/12/13 02:02:33;;;;;;;62.50;27.20;;;8.60;99.90;;;;;;5094095;28;20189;-67
2021/12/13 02:05:05;;;;;;;66.87;28.17;;;8.60;99.90;;;;;;5092510;28;20223;-67
2021/12/13 02:07:40;;;;;;;67.57;27.13;;;8.60;99.90;;;;;;5093750;28;20184;-67
2021/12/13 02:10:16;;;;;;;65.27;27.00;;;8.60;99.90;;;;;;5093715;28;20176;-67
2021/12/13 02:12:45;;;;;;;63.83;26.30;;;8.60;99.90;;;;;;5093810;28;20191;-67
2021/12/13 02:18:14;;;;;;;63.03;23.83;;;8.60;99.90;;;;;;5073965;28;20236;-67
2021/12/13 02:20:45;;;;;;;56.87;23.77;;;8.60;99.90;;;;;;5093131;28;20165;-67
2021/12/13 02:23:11;;;;;;;53.33;23.53;;;8.60;99.90;;;;;;5093515;28;20199;-67
2021/12/13 02:25:49;;;;;;;52.40;22.93;;;8.60;99.90;;;;;;5093544;28;20263;-67
2021/12/13 02:28:18;;;;;;;53.33;23.17;;;8.60;99.90;;;;;;5093424;28;20225;-67
2021/12/13 02:30:55;;;;;;;50.43;22.70;;;8.60;99.90;;;;;;5093431;28;20664;-67
2021/12/13 02:33:32;;;;;;;56.17;22.93;;;8.60;99.90;;;;;;5093632;28;20254;-67
2021/12/13 02:36:04;;;;;;;51.00;22.13;;;8.60;99.90;;;;;;5093716;28;20161;-67
2021/12/13 02:38:30;;;;;;;51.30;20.80;;;8.60;99.90;;;;;;5091974;28;20165;-67
2021/12/13 02:40:57;;;;;;;53.00;23.77;;;8.60;99.90;;;;;;5093256;28;20181;-67
2021/12/13 02:43:28;;;;;;;50.00;22.10;;;8.60;99.90;;;;;;5093443;28;20197;-67
2021/12/13 02:45:56;;;;;;;60.77;24.37;;;8.60;99.90;;;;;;5092049;28;20531;-67
2021/12/13 02:48:28;;;;;;;53.83;21.53;;;8.60;99.90;;;;;;5093124;28;20173;-67
2021/12/13 02:51:06;;;;;;;57.07;25.17;;;8.60;99.90;;;;;;5093224;28;20178;-67
2021/12/13 02:53:44;;;;;;;62.07;25.43;;;8.50;99.90;;;;;;5093718;28;20670;-67
2021/12/13 02:56:11;;;;;;;60.97;24.20;;;8.50;99.90;;;;;;5091840;28;20173;-67
2021/12/13 02:58:40;;;;;;;59.40;25.10;;;8.50;99.90;;;;;;5093183;28;20543;-67
2021/12/13 03:01:28;;;;;;;62.93;25.60;;;8.50;99.90;;;;;;5093103;28;20177;-67
2021/12/13 03:03:58;;;;;;;64.37;26.43;;;8.50;99.90;;;;;;5089679;28;20217;-67
2021/12/13 03:06:31;;;;;;;61.87;26.30;;;8.50;99.90;;;;;;5093246;28;20646;-67
2021/12/13 03:09:01;;;;;;;66.37;25.77;;;8.50;99.90;;;;;;5093292;28;20178;-67
2021/12/13 03:11:32;;;;;;;64.33;26.07;;;8.50;99.90;;;;;;5092859;28;20177;-67
2021/12/13 03:14:04;;;;;;;62.07;26.00;;;8.50;99.90;;;;;;5093105;28;20245;-67
2021/12/13 03:16:36;;;;;;;77.47;28.83;;;8.50;99.90;;;;;;5091773;28;20161;-67
2021/12/13 03:19:09;;;;;;;67.20;26.77;;;8.50;99.90;;;;;;5093315;28;20165;-67
2021/12/13 03:21:41;;;;;;;76.00;28.50;;;8.50;99.90;;;;;;5092771;28;20248;-67
2021/12/13 03:24:30;;;;;;;74.90;29.20;;;8.50;99.90;;;;;;5092801;28;20197;-67
2021/12/13 03:27:34;;;;;;;68.40;28.00;;;8.50;99.90;;;;;;5093063;28;20210;-67
2021/12/13 03:30:10;;;;;;;88.80;28.87;;;8.50;99.90;;;;;;5092914;28;20169;-67
2021/12/13 03:32:48;;;;;;;83.33;29.63;;;8.50;99.90;;;;;;5091458;28;20201;-67
2021/12/13 03:35:43;;;;;;;82.30;30.40;;;8.50;99.90;;;;;;5093074;28;20161;-67
2021/12/13 03:38:17;;;;;;;73.07;28.03;;;8.50;99.90;;;;;;5091471;28;20188;-67
2021/12/13 03:40:45;;;;;;;70.53;28.73;;;8.50;99.90;;;;;;5093100;28;20519;-67
2021/12/13 03:43:16;;;;;;;85.17;29.07;;;8.40;99.90;;;;;;5091446;28;20208;-67
2021/12/13 03:45:50;;;;;;;72.73;29.57;;;8.50;99.90;;;;;;5091731;28;20377;-67
2021/12/13 03:48:20;;;;;;;73.93;27.87;;;8.40;99.90;;;;;;5090989;28;20252;-67
2021/12/13 03:50:50;;;;;;;69.20;25.17;;;8.40;99.90;;;;;;5092868;28;20262;-67
2021/12/13 03:53:25;;;;;;;67.40;26.67;;;8.40;99.90;;;;;;5090966;28;20213;-67
2021/12/13 03:55:56;;;;;;;67.47;24.47;;;8.40;99.90;;;;;;5092865;28;20640;-67
2021/12/13 03:58:24;;;;;;;68.10;26.40;;;8.40;99.90;;;;;;5091541;28;20628;-67
2021/12/13 04:01:06;;;;;;;63.37;26.20;;;8.40;99.90;;;;;;5095868;28;20512;-67
2021/12/13 04:03:33;;;;;;;67.63;25.30;;;8.40;99.90;;;;;;5096356;28;20278;-67
2021/12/13 04:05:59;;;;;;;66.47;25.77;;;8.40;99.90;;;;;;5096009;28;20191;-67
2021/12/13 04:08:25;;;;;;;61.10;25.20;;;8.40;99.90;;;;;;5096197;28;20256;-67
2021/12/13 04:10:56;;;;;;;63.00;25.43;;;8.40;99.90;;;;;;5096062;28;20239;-67
2021/12/13 04:13:27;;;;;;;61.97;22.33;;;8.40;99.90;;;;;;5094573;28;20212;-67
2021/12/13 04:16:07;;;;;;;64.20;26.57;;;8.40;99.90;;;;;;5094738;28;20165;-67
2021/12/13 04:21:23;;;;;;;62.30;24.50;;;8.30;99.90;;;;;;5096151;28;20161;-67
2021/12/13 04:23:55;;;;;;;71.00;25.83;;;8.40;99.90;;;;;;5095702;28;20193;-67
2021/12/13 04:26:22;;;;;;;59.97;24.27;;;8.30;99.90;;;;;;5096125;28;20158;-67
2021/12/13 04:28:51;;;;;;;62.80;23.67;;;8.30;99.90;;;;;;5095982;28;20256;-67
2021/12/13 04:31:20;;;;;;;60.23;24.00;;;8.30;99.90;;;;;;5095690;28;20664;-67
2021/12/13 04:33:59;;;;;;;69.07;23.47;;;8.30;99.90;;;;;;5094066;28;20221;-67
2021/12/13 04:36:35;;;;;;;67.20;25.57;;;8.30;99.90;;;;;;5095607;28;20570;-67
2021/12/13 04:39:04;;;;;;;47.77;20.50;;;8.30;99.90;;;;;;5095480;28;20183;-67
2021/12/13 04:41:34;;;;;;;63.37;24.63;;;8.30;99.90;;;;;;5095690;28;20530;-68
2021/12/13 04:44:10;;;;;;;54.13;21.43;;;8.30;99.90;;;;;;5094063;28;20246;-67
2021/12/13 04:46:40;;;;;;;65.27;23.37;;;8.30;99.90;;;;;;5095497;28;20694;-67
2021/12/13 04:49:13;;;;;;;60.83;24.07;;;8.20;99.90;;;;;;5094098;28;20173;-67
2021/12/13 04:52:01;;;;;;;46.30;19.33;;;8.20;99.90;;;;;;5093737;28;20596;-67
2021/12/13 04:54:29;;;;;;;59.70;22.13;;;8.20;99.90;;;;;;5095160;28;20197;-67
2021/12/13 04:56:57;;;;;;;53.80;19.80;;;8.20;99.90;;;;;;5095449;28;20704;-67
2021/12/13 04:59:24;;;;;;;53.70;20.07;;;8.20;99.90;;;;;;5095253;28;20165;-67
2021/12/13 05:01:54;;;;;;;64.57;22.47;;;8.20;99.90;;;;;;5095510;28;20169;-69
2021/12/13 05:04:23;;;;;;;53.83;20.93;;;8.20;99.90;;;;;;5094963;28;20189;-67
2021/12/13 05:06:50;;;;;;;45.03;19.83;;;8.20;99.90;;;;;;5095256;28;20267;-67
2021/12/13 05:09:19;;;;;;;69.50;24.13;;;8.20;99.90;;;;;;5093747;28;20184;-67
2021/12/13 05:11:52;;;;;;;49.93;20.60;;;8.20;99.90;;;;;;5094977;28;20176;-66
2021/12/13 05:14:31;;;;;;;48.43;21.50;;;8.20;99.90;;;;;;5094943;28;20189;-67
2021/12/13 05:16:59;;;;;;;58.77;21.30;;;8.20;99.90;;;;;;5094920;28;20605;-67
2021/12/13 05:19:34;;;;;;;43.93;18.90;;;8.20;99.90;;;;;;5093551;28;20168;-67
2021/12/13 05:22:02;;;;;;;55.40;22.63;;;8.20;99.90;;;;;;5096718;28;20153;-67
2021/12/13 05:24:32;;;;;;;45.23;19.97;;;8.20;99.90;;;;;;5094425;28;20197;-67
2021/12/13 05:27:13;;;;;;;52.50;21.77;;;8.20;99.90;;;;;;5095001;28;20169;-67
2021/12/13 05:29:49;;;;;;;41.70;18.43;;;8.20;99.90;;;;;;5094909;28;20172;-67
2021/12/13 05:32:27;;;;;;;47.63;18.30;;;8.10;99.90;;;;;;5094960;28;20660;-67
2021/12/13 05:35:13;;;;;;;43.53;16.80;;;8.10;99.90;;;;;;5093515;28;20188;-67
2021/12/13 05:37:42;;;;;;;40.57;17.63;;;8.10;99.90;;;;;;5094662;28;20241;-67
2021/12/13 05:40:15;;;;;;;37.40;16.73;;;8.10;99.90;;;;;;5093507;28;20171;-67
2021/12/13 05:42:50;;;;;;;38.57;16.60;;;8.10;99.90;;;;;;5095136;28;20161;-66
2021/12/13 05:45:20;;;;;;;36.33;16.50;;;8.10;99.90;;;;;;5094716;28;20171;-66
2021/12/13 05:48:10;;;;;;;49.37;17.60;;;8.10;99.90;;;;;;5093209;28;20173;-67
2021/12/13 05:50:47;;;;;;;29.20;14.17;;;8.10;99.90;;;;;;5095626;28;20514;-67
2021/12/13 05:53:26;;;;;;;37.67;17.17;;;8.10;99.90;;;;;;5092975;28;20266;-67
2021/12/13 05:56:06;;;;;;;35.70;16.03;;;8.10;99.90;;;;;;5094406;28;20268;-67
2021/12/13 05:58:40;;;;;;;38.57;16.57;;;8.10;99.90;;;;;;5094418;28;20164;-67
2021/12/13 06:01:19;;;;;;;30.07;15.60;;;8.10;99.90;;;;;;5093421;28;20270;-67
2021/12/13 06:03:57;;;;;;;31.00;14.73;;;8.10;99.90;;;;;;5092933;28;20196;-67
2021/12/13 06:06:27;;;;;;;31.97;15.73;;;8.10;99.90;;;;;;5094325;28;20153;-67
2021/12/13 06:09:01;;;;;;;42.97;17.50;;;8.10;99.90;;;;;;5094591;28;20640;-67
2021/12/13 06:11:34;;;;;;;45.43;18.83;;;8.10;99.90;;;;;;5094165;28;20218;-67
2021/12/13 06:14:19;;;;;;;40.80;16.70;;;8.10;99.90;;;;;;5094094;28;20589;-67
2021/12/13 06:17:29;;;;;;;;;;;;;;;;;;;;;
2021/12/13 06:20:15;;;;;;;29.97;14.27;;;8.00;99.90;;;;;;5092158;28;20185;-67
2021/12/13 06:22:42;;;;;;;35.73;16.43;;;8.00;99.90;;;;;;5092187;28;20659;-66
2021/12/13 06:25:18;;;;;;;42.27;17.07;;;8.00;99.90;;;;;;5093946;28;20183;-66
2021/12/13 06:27:59;;;;;;;34.97;16.10;;;8.00;99.90;;;;;;5092934;28;20161;-66
2021/12/13 06:30:38;;;;;;;30.57;14.97;;;8.00;99.90;;;;;;5094596;28;20153;-66
2021/12/13 06:33:10;;;;;;;32.63;15.53;;;8.00;99.90;;;;;;5094070;28;20572;-66
2021/12/13 06:35:41;;;;;;;35.30;16.60;;;8.00;99.90;;;;;;5094052;28;20512;-66
2021/12/13 06:38:19;;;;;;;34.90;15.87;;;8.00;99.90;;;;;;5092376;28;20180;-66
2021/12/13 06:40:53;;;;;;;30.57;15.97;;;8.00;99.90;;;;;;5093542;28;20185;-66
2021/12/13 06:43:40;;;;;;;28.30;13.87;;;8.10;99.90;;;;;;5093842;28;20676;-66
2021/12/13 06:46:24;;;;;;;24.37;13.27;;;8.10;99.90;;;;;;5093629;28;20664;-66
2021/12/13 06:49:01;;;;;;;27.23;14.77;;;8.10;99.90;;;;;;5092644;28;20570;-66
2021/12/13 06:51:48;;;;;;;32.93;14.53;;;8.10;99.90;;;;;;5093639;28;20197;-67
2021/12/13 06:54:22;;;;;;;35.57;16.03;;;8.00;99.90;;;;;;5093410;28;20196;-66
2021/12/13 06:57:34;;;;;;;34.07;16.20;;;8.00;99.90;;;;;;5093794;28;20158;-67
2021/12/13 07:00:28;;;;;;;30.47;16.00;;;8.00;99.90;;;;;;5092120;28;20184;-66
2021/12/13 07:03:12;;;;;;;29.13;14.13;;;8.00;99.90;;;;;;5093708;28;20203;-66
2021/12/13 07:05:46;;;;;;;36.90;16.43;;;8.00;99.90;;;;;;5093372;28;20200;-67
2021/12/13 07:08:20;;;;;;;34.50;16.93;;;8.00;99.90;;;;;;5092131;28;20164;-67
2021/12/13 07:11:05;;;;;;;38.03;16.17;;;8.00;99.90;;;;;;5091992;28;20267;-67
2021/12/13 07:13:31;;;;;;;34.40;17.40;;;8.00;99.90;;;;;;5091906;28;20584;-67
2021/12/13 07:16:05;;;;;;;31.77;17.43;;;8.00;99.90;;;;;;5093524;28;20169;-66
2021/12/13 07:18:46;;;;;;;36.10;15.80;;;8.00;99.90;;;;;;5093246;28;20173;-66
2021/12/13 07:21:24;;;;;;;28.83;13.73;;;8.00;99.90;;;;;;5092037;28;20165;-67
2021/12/13 07:24:08;;;;;;;37.53;16.97;;;8.00;99.90;;;;;;5093202;28;20691;-66
2021/12/13 07:26:57;;;;;;;34.70;16.53;;;8.00;99.90;;;;;;5092871;28;20191;-67
2021/12/13 07:29:38;;;;;;;35.73;16.50;;;8.00;99.90;;;;;;5093630;28;20170;-66
2021/12/13 07:32:32;;;;;;;37.93;18.67;;;8.00;99.90;;;;;;5093606;28;20185;-66
2021/12/13 07:35:20;;;;;;;41.83;18.93;;;8.00;99.90;;;;;;5094609;28;20268;-66
2021/12/13 07:37:53;;;;;;;35.33;17.97;;;8.00;99.90;;;;;;5097363;28;20621;-67
2021/12/13 07:40:23;;;;;;;34.47;17.10;;;7.90;99.90;;;;;;5095691;28;20177;-67
2021/12/13 07:42:54;;;;;;;45.07;19.17;;;8.00;99.90;;;;;;5095609;28;20716;-66
2021/12/13 07:45:34;;;;;;;34.33;18.03;;;8.00;99.90;;;;;;5097449;28;20624;-66
2021/12/13 07:48:07;;;;;;;34.70;16.87;;;7.90;99.90;;;;;;5096859;28;20497;-67
2021/12/13 07:50:43;;;;;;;34.47;16.00;;;8.00;99.90;;;;;;5095511;28;20161;-66
2021/12/13 07:53:17;;;;;;;31.67;15.23;;;8.00;99.90;;;;;;5096591;28;20578;-66
2021/12/13 07:55:49;;;;;;;29.70;16.43;;;8.00;99.90;;;;;;5096756;28;20157;-67
2021/12/13 07:58:31;;;;;;;42.20;19.13;;;8.00;99.90;;;;;;5096663;28;20185;-67
2021/12/13 08:01:22;;;;;;;35.00;15.77;;;8.00;99.90;;;;;;5096907;28;20245;-66
2021/12/13 08:03:58;;;;;;;33.70;17.00;;;8.00;99.90;;;;;;5097065;28;20728;-67
2021/12/13 08:06:35;;;;;;;42.47;19.37;;;8.00;99.90;;;;;;5096515;28;20153;-67
2021/12/13 08:09:09;;;;;;;35.83;17.50;;;8.00;99.90;;;;;;5095210;28;20169;-66
2021/12/13 08:11:53;;;;;;;38.30;17.63;;;7.90;99.90;;;;;;5096372;28;20203;-67
2021/12/13 08:14:38;;;;;;;35.50;16.93;;;8.00;99.90;;;;;;5095037;28;20247;-67
2021/12/13 08:17:24;;;;;;;43.00;19.80;;;8.00;99.90;;;;;;5096635;28;20240;-67
2021/12/13 08:20:06;;;;;;;42.03;19.03;;;8.00;99.90;;;;;;5094980;28;20165;-67
2021/12/13 08:22:33;;;;;;;39.87;19.40;;;7.90;99.90;;;;;;5096777;28;20157;-67
2021/12/13 08:25:14;;;;;;;43.07;19.40;;;7.90;99.90;;;;;;5096844;28;20611;-66
2021/12/13 08:27:49;;;;;;;46.73;19.20;;;7.90;99.90;;;;;;5096548;28;20154;-67
2021/12/13 08:30:27;;;;;;;37.13;18.43;;;7.90;99.90;;;;;;5094873;28;20165;-67
2021/12/13 08:33:04;;;;;;;42.90;19.60;;;7.90;99.90;;;;;;5096173;28;20193;-67
2021/12/13 08:35:53;;;;;;;52.27;20.27;;;7.90;99.90;;;;;;5096585;28;20511;-67
2021/12/13 08:38:29;;;;;;;39.33;20.13;;;7.90;99.90;;;;;;5087188;28;20219;-67
2021/12/13 08:41:01;;;;;;;52.80;21.03;;;7.90;99.90;;;;;;5094596;28;20648;-67
2021/12/13 08:43:41;;;;;;;45.93;20.47;;;7.90;99.90;;;;;;5095758;28;20192;-66
2021/12/13 08:46:10;;;;;;;48.87;21.60;;;7.90;99.90;;;;;;5094176;28;20514;-67
2021/12/13 08:48:50;;;;;;;50.90;22.03;;;7.90;99.90;;;;;;5095802;28;20181;-66
2021/12/13 08:51:22;;;;;;;49.10;22.33;;;7.90;99.90;;;;;;5096023;28;20629;-67
2021/12/13 08:54:12;;;;;;;39.87;19.00;;;7.90;99.90;;;;;;5095712;28;20295;-66
2021/12/13 08:56:46;;;;;;;48.50;21.00;;;8.00;99.90;;;;;;5094257;28;20547;-67
2021/12/13 08:59:26;;;;;;;39.70;20.37;;;8.00;99.90;;;;;;5094265;28;20164;-67
2021/12/13 09:02:13;;;;;;;50.13;22.07;;;8.00;99.90;;;;;;5095461;28;20161;-66
2021/12/13 09:04:52;;;;;;;44.27;20.23;;;7.90;99.90;;;;;;5095319;28;20213;-66
2021/12/13 09:07:20;;;;;;;47.73;20.23;;;7.90;99.90;;;;;;5095915;28;20652;-66
2021/12/13 09:09:48;;;;;;;47.10;22.23;;;7.90;99.90;;;;;;5095406;28;20660;-66
2021/12/13 09:12:24;;;;;;;51.97;21.43;;;7.90;99.90;;;;;;5095430;28;20205;-66
2021/12/13 09:14:54;;;;;;;42.87;20.23;;;7.90;99.90;;;;;;5095467;28;20564;-66
2021/12/13 09:17:37;;;;;;;52.00;22.03;;;7.90;99.90;;;;;;5093996;28;20552;-67
2021/12/13 09:20:29;;;;;;;51.23;22.50;;;7.90;99.90;;;;;;5095397;28;20177;-67
2021/12/13 09:23:12;;;;;;;39.17;20.40;;;8.00;99.90;;;;;;5094032;28;20197;-64
2021/12/13 09:25:54;;;;;;;48.90;20.63;;;8.00;99.90;;;;;;5093771;28;20170;-64
2021/12/13 09:28:29;;;;;;;44.33;19.50;;;8.00;99.90;;;;;;5095246;28;20161;-64
2021/12/13 09:31:35;;;;;;;44.33;21.67;;;8.00;99.90;;;;;;5093643;28;20169;-64
2021/12/13 09:34:18;;;;;;;39.73;19.50;;;8.00;99.90;;;;;;5093840;28;20227;-64
2021/12/13 09:36:50;;;;;;;41.53;20.80;;;8.00;99.90;;;;;;5095131;28;20182;-64
2021/12/13 09:39:27;;;;;;;45.60;20.37;;;8.00;99.90;;;;;;5094964;28;20208;-64
2021/12/13 09:42:13;;;;;;;44.17;20.03;;;8.00;99.90;;;;;;5094921;28;20164;-64
2021/12/13 09:44:56;;;;;;;40.40;19.33;;;8.00;99.90;;;;;;5094544;28;20196;-64
2021/12/13 09:47:35;;;;;;;43.23;19.80;;;8.00;99.90;;;;;;5095167;28;20149;-64
2021/12/13 09:50:10;;;;;;;40.50;21.33;;;8.00;99.90;;;;;;5094723;28;20157;-64
2021/12/13 09:52:42;;;;;;;39.30;20.43;;;8.00;99.90;;;;;;5094311;28;20204;-64
2021/12/13 09:55:32;;;;;;;40.07;21.20;;;8.00;99.90;;;;;;5094667;28;20610;-64
2021/12/13 09:58:14;;;;;;;43.27;20.00;;;8.00;99.90;;;;;;5093657;28;20513;-64
2021/12/13 10:01:06;;;;;;;41.13;20.60;;;8.00;99.90;;;;;;5094594;28;20180;-64
2021/12/13 10:04:12;;;;;;;47.07;20.27;;;8.00;99.90;;;;;;5094079;28;20283;-64
2021/12/13 10:06:45;;;;;;;36.17;21.20;;;8.00;99.90;;;;;;5094778;28;20168;-64
2021/12/13 10:09:30;;;;;;;43.83;22.47;;;8.10;99.90;;;;;;5094461;28;20167;-64
2021/12/13 10:12:20;;;;;;;43.63;21.13;;;8.10;99.90;;;;;;5094004;28;20177;-64
2021/12/13 10:14:56;;;;;;;37.30;20.30;;;8.10;99.90;;;;;;5094548;28;20189;-64
2021/12/13 10:17:35;;;;;;;46.67;21.10;;;8.10;99.90;;;;;;5094303;28;20239;-64
2021/12/13 10:20:09;;;;;;;37.50;20.00;;;8.10;99.90;;;;;;5092637;28;20179;-64
2021/12/13 10:22:37;;;;;;;41.60;20.47;;;8.10;99.90;;;;;;5093910;28;20256;-64
2021/12/13 10:25:09;;;;;;;37.00;20.00;;;8.10;99.90;;;;;;5094109;28;20173;-64
2021/12/13 10:27:40;;;;;;;38.97;19.87;;;8.10;99.90;;;;;;5092563;28;20189;-64
2021/12/13 10:30:15;;;;;;;41.67;20.67;;;8.10;99.90;;;;;;5092561;28;20204;-64
2021/12/13 10:32:44;;;;;;;36.63;17.67;;;8.10;99.90;;;;;;5093599;28;20200;-64
2021/12/13 10:35:14;;;;;;;35.63;17.47;;;8.10;99.90;;;;;;5092350;28;20169;-64
2021/12/13 10:37:46;;;;;;;33.90;17.27;;;8.10;99.90;;;;;;5093952;28;20154;-64
2021/12/13 10:40:29;;;;;;;29.63;16.90;;;8.20;99.90;;;;;;5092353;28;20165;-64
2021/12/13 10:43:06;;;;;;;33.70;17.37;;;8.20;99.90;;;;;;5093784;28;20515;-64
2021/12/13 10:45:40;;;;;;;29.77;16.83;;;8.20;99.90;;;;;;5093790;28;20529;-64
2021/12/13 10:48:29;;;;;;;27.47;16.67;;;8.20;99.90;;;;;;5092352;28;20299;-64
2021/12/13 10:51:11;;;;;;;24.57;15.60;;;8.10;99.90;;;;;;5093605;28;20164;-64
2021/12/13 10:53:40;;;;;;;28.03;16.50;;;8.10;99.90;;;;;;5092123;28;20218;-64
2021/12/13 10:56:20;;;;;;;26.43;16.10;;;8.10;99.90;;;;;;5093871;28;20158;-64
2021/12/13 10:58:49;;;;;;;24.73;15.47;;;8.10;99.90;;;;;;5092371;28;20172;-64
2021/12/13 11:01:24;;;;;;;28.40;15.83;;;8.20;99.90;;;;;;5092187;28;20196;-64
2021/12/13 11:03:58;;;;;;;28.50;16.20;;;8.20;99.90;;;;;;5093657;28;20271;-64
2021/12/13 11:06:35;;;;;;;27.43;16.57;;;8.20;99.90;;;;;;5092170;28;20177;-65
2021/12/13 11:09:08;;;;;;;25.20;15.90;;;8.20;99.90;;;;;;5095752;28;20240;-64
2021/12/13 11:12:08;;;;;;;23.50;15.03;;;8.20;99.90;;;;;;5096344;28;20255;-64
2021/12/13 11:14:41;;;;;;;24.20;15.30;;;8.20;99.90;;;;;;5092956;28;20223;-64
2021/12/13 11:17:11;;;;;;;23.90;14.67;;;8.20;99.90;;;;;;5096578;28;20234;-66
2021/12/13 11:19:45;;;;;;;20.50;14.10;;;8.20;99.90;;;;;;5097987;28;20158;-66
2021/12/13 11:22:33;;;;;;;20.80;13.83;;;8.20;99.90;;;;;;5096846;28;20260;-66
2021/12/13 11:25:09;;;;;;;19.97;13.77;;;8.20;99.90;;;;;;5098078;28;20618;-64
2021/12/13 11:27:36;;;;;;;22.40;14.93;;;8.20;99.90;;;;;;5097108;28;20173;-66
2021/12/13 11:30:08;;;;;;;24.00;15.13;;;8.20;99.90;;;;;;5097455;28;20633;-66
2021/12/13 11:32:42;;;;;;;21.73;15.53;;;8.20;99.90;;;;;;5096359;28;20197;-65
2021/12/13 11:35:11;;;;;;;21.67;14.50;;;8.20;99.90;;;;;;5097836;28;20158;-64
2021/12/13 11:38:14;;;;;;;21.50;14.43;;;8.20;99.90;;;;;;5097234;28;20600;-64
2021/12/13 11:41:17;;;;;;;22.30;15.07;;;8.20;99.90;;;;;;5096035;28;20542;-64
2021/12/13 11:44:02;;;;;;;22.23;15.03;;;8.20;99.90;;;;;;5097755;28;20193;-64
2021/12/13 11:47:06;;;;;;;23.53;16.70;;;8.30;99.90;;;;;;5097483;28;20164;-64
2021/12/13 11:49:35;;;;;;;20.13;14.60;;;8.30;99.90;;;;;;5097654;28;20157;-66
2021/12/13 11:52:11;;;;;;;22.93;15.97;;;8.30;99.90;;;;;;5097193;28;20217;-64
2021/12/13 11:55:01;;;;;;;20.23;13.97;;;8.30;99.90;;;;;;5097615;28;20196;-63
2021/12/13 11:57:51;;;;;;;19.20;14.47;;;8.30;99.90;;;;;;5097370;28;20169;-66
2021/12/13 12:00:55;;;;;;;18.87;14.00;;;8.30;99.90;;;;;;5096672;28;20257;-66
2021/12/13 12:04:02;;;;;;;19.63;13.83;;;8.30;99.90;;;;;;5094921;28;20204;-66
2021/12/13 12:06:48;;;;;;;22.23;13.30;;;8.40;99.90;;;;;;5095248;28;20177;-66
2021/12/13 12:09:26;;;;;;;19.13;12.73;;;8.30;99.90;;;;;;5095559;28;20173;-66
2021/12/13 12:12:10;;;;;;;19.60;13.50;;;8.40;99.90;;;;;;5096771;28;20164;-66
2021/12/13 12:14:36;;;;;;;18.33;12.77;;;8.30;99.90;;;;;;5095665;28;20200;-66
2021/12/13 12:17:05;;;;;;;17.43;12.90;;;8.30;99.90;;;;;;5095902;28;20173;-66
2021/12/13 12:19:40;;;;;;;16.57;12.47;;;8.30;99.90;;;;;;5097107;28;20169;-67
2021/12/13 12:22:16;;;;;;;18.57;12.87;;;8.30;99.90;;;;;;5096674;28;20153;-67
2021/12/13 12:24:54;;;;;;;22.13;13.00;;;8.30;99.90;;;;;;5095417;28;20567;-67
2021/12/13 12:27:26;;;;;;;15.07;11.87;;;8.30;99.90;;;;;;5096592;28;20238;-67
2021/12/13 12:29:56;;;;;;;19.10;12.27;;;8.30;99.90;;;;;;5096333;28;20529;-67
2021/12/13 12:32:35;;;;;;;19.37;12.23;;;8.30;99.90;;;;;;5094691;28;20254;-67
2021/12/13 12:35:01;;;;;;;17.07;11.63;;;8.30;99.90;;;;;;5096221;28;20189;-67
2021/12/13 12:37:55;;;;;;;18.67;12.90;;;8.40;99.90;;;;;;5096370;28;20625;-67
2021/12/13 12:40:53;;;;;;;15.50;11.90;;;8.40;99.90;;;;;;5096010;28;20586;-67
2021/12/13 12:43:24;;;;;;;15.23;11.87;;;8.40;99.90;;;;;;5091350;28;20211;-67
2021/12/13 12:46:01;;;;;;;15.33;11.33;;;8.40;99.90;;;;;;5095761;28;20687;-67
2021/12/13 12:48:47;;;;;;;18.10;12.37;;;8.40;99.90;;;;;;5095581;28;20169;-67
2021/12/13 12:51:17;;;;;;;15.80;11.93;;;8.40;99.90;;;;;;5095609;28;20168;-67
2021/12/13 12:53:51;;;;;;;19.37;13.33;;;8.40;99.90;;;;;;5095430;28;20240;-67
2021/12/13 12:56:28;;;;;;;17.17;12.53;;;8.30;99.90;;;;;;5095847;28;20164;-65
2021/12/13 12:59:15;;;;;;;17.73;12.73;;;8.30;99.90;;;;;;5095842;28;20206;-65
2021/12/13 13:01:58;;;;;;;16.80;12.77;;;8.30;99.90;;;;;;5096019;28;20548;-66
2021/12/13 13:04:26;;;;;;;14.93;12.20;;;8.30;99.90;;;;;;5094810;28;20550;-66
2021/12/13 13:07:07;;;;;;;15.63;12.17;;;8.30;99.90;;;;;;5094188;28;20202;-66
2021/12/13 13:12:46;;;;;;;16.10;12.30;;;8.40;99.90;;;;;;5095185;28;20250;-65
2021/12/13 13:15:29;;;;;;;15.50;11.90;;;8.40;99.90;;;;;;5095397;28;20157;-65
2021/12/13 13:18:04;;;;;;;20.63;12.57;;;8.40;99.90;;;;;;5095392;28;20232;-65
2021/12/13 13:20:57;;;;;;;19.40;12.20;;;8.40;99.90;;;;;;5095005;28;20184;-65
2021/12/13 13:23:26;;;;;;;17.03;12.90;;;8.40;99.90;;;;;;5094723;28;20199;-66
2021/12/13 13:26:02;;;;;;;18.27;13.40;;;8.40;99.90;;;;;;5095193;28;20162;-65
2021/12/13 13:28:30;;;;;;;16.17;11.03;;;8.40;99.90;;;;;;5095214;28;20161;-65
2021/12/13 13:31:20;;;;;;;16.67;11.53;;;8.40;99.90;;;;;;5094113;28;20625;-65
2021/12/13 13:34:08;;;;;;;20.87;12.70;;;8.40;99.90;;;;;;5093887;28;20217;-65
2021/12/13 13:36:36;;;;;;;15.17;11.23;;;8.30;99.90;;;;;;5095011;28;20165;-65
2021/12/13 13:39:16;;;;;;;16.97;12.23;;;8.30;99.90;;;;;;5094630;28;20181;-65
2021/12/13 13:41:44;;;;;;;15.93;11.67;;;8.40;99.90;;;;;;5094635;28;20166;-65
2021/12/13 13:44:23;;;;;;;17.13;12.43;;;8.40;99.90;;;;;;5093170;28;20201;-65
2021/12/13 13:47:00;;;;;;;16.77;11.83;;;8.40;99.90;;;;;;5094818;28;20185;-65